sensor_id;sensor_type;location;lat;lon;timestamp;temperature;humidity
5924;DHT22;2987;50.884;14.818;2023-06-22T00:01:56;19.40;99.90
5924;DHT22;2987;50.884;14.818;2023-06-22T00:06:48;19.40;99.90
5924;DHT22;2987;50.884;14.818;2023-06-22T00:09:14;19.30;99.90
5924;DHT22;2987;50.884;14.818;2023-06-22T00:11:40;19.30;99.90
5924;DHT22;2987;50.884;14.818;2023-06-22T00:14:06;19.30;99.90
5924;DHT22;2987;50.884;14.818;2023-06-22T00:16:33;19.30;99.90
5924;DHT22;2987;50.884;14.818;2023-06-22T00:19:00;19.30;99.90
5924;DHT22;2987;50.884;14.818;2023-06-22T00:21:27;19.20;99.90
5924;DHT22;2987;50.884;14.818;2023-06-22T00:26:19;19.10;99.90
5924;DHT22;2987;50.884;14.818;2023-06-22T00:28:47;19.00;99.90
5924;DHT22;2987;50.884;14.818;2023-06-22T00:31:13;18.90;99.90
5924;DHT22;2987;50.884;14.818;2023-06-22T00:33:39;18.80;99.90
5924;DHT22;2987;50.884;14.818;2023-06-22T00:36:05;18.80;99.90
5924;DHT22;2987;50.884;14.818;2023-06-22T00:38:34;18.70;99.90
5924;DHT22;2987;50.884;14.818;2023-06-22T00:41:00;18.60;99.90
5924;DHT22;2987;50.884;14.818;2023-06-22T00:43:26;18.60;99.90
5924;DHT22;2987;50.884;14.818;2023-06-22T00:45:52;18.50;99.90
5924;DHT22;2987;50.884;14.818;2023-06-22T00:48:22;18.50;99.90
5924;DHT22;2987;50.884;14.818;2023-06-22T00:50:48;18.50;99.90
5924;DHT22;2987;50.884;14.818;2023-06-22T00:53:17;18.40;99.90
5924;DHT22;2987;50.884;14.818;2023-06-22T00:55:44;18.40;99.90
5924;DHT22;2987;50.884;14.818;2023-06-22T00:58:17;18.40;99.90
5924;DHT22;2987;50.884;14.818;2023-06-22T01:00:48;18.30;99.90
5924;DHT22;2987;50.884;14.818;2023-06-22T01:03:14;18.30;99.90
5924;DHT22;2987;50.884;14.818;2023-06-22T01:05:43;18.20;99.90
5924;DHT22;2987;50.884;14.818;2023-06-22T01:08:29;18.10;99.90
5924;DHT22;2987;50.884;14.818;2023-06-22T01:11:19;18.00;99.90
5924;DHT22;2987;50.884;14.818;2023-06-22T01:14:00;17.90;99.90
5924;DHT22;2987;50.884;14.818;2023-06-22T01:16:33;17.90;99.90
5924;DHT22;2987;50.884;14.818;2023-06-22T01:21:29;17.90;99.90
5924;DHT22;2987;50.884;14.818;2023-06-22T01:24:22;17.80;99.90
5924;DHT22;2987;50.884;14.818;2023-06-22T01:34:46;17.70;99.90
5924;DHT22;2987;50.884;14.818;2023-06-22T01:37:13;17.70;99.90
5924;DHT22;2987;50.884;14.818;2023-06-22T01:39:39;17.60;99.90
5924;DHT22;2987;50.884;14.818;2023-06-22T01:42:06;17.60;99.90
5924;DHT22;2987;50.884;14.818;2023-06-22T01:44:33;17.50;99.90
5924;DHT22;2987;50.884;14.818;2023-06-22T01:46:59;17.40;99.90
5924;DHT22;2987;50.884;14.818;2023-06-22T01:49:26;17.30;99.90
5924;DHT22;2987;50.884;14.818;2023-06-22T01:51:52;17.20;99.90
5924;DHT22;2987;50.884;14.818;2023-06-22T01:54:20;17.20;99.90
5924;DHT22;2987;50.884;14.818;2023-06-22T01:56:46;17.10;99.90
5924;DHT22;2987;50.884;14.818;2023-06-22T01:59:18;17.10;99.90
5924;DHT22;2987;50.884;14.818;2023-06-22T02:01:52;17.10;99.90
5924;DHT22;2987;50.884;14.818;2023-06-22T02:04:24;17.10;99.90
5924;DHT22;2987;50.884;14.818;2023-06-22T02:06:55;17.10;99.90
5924;DHT22;2987;50.884;14.818;2023-06-22T02:09:23;17.00;99.90
5924;DHT22;2987;50.884;14.818;2023-06-22T02:11:54;17.00;99.90
5924;DHT22;2987;50.884;14.818;2023-06-22T02:14:23;17.00;99.90
5924;DHT22;2987;50.884;14.818;2023-06-22T02:16:51;17.00;99.90
5924;DHT22;2987;50.884;14.818;2023-06-22T02:19:17;16.90;99.90
5924;DHT22;2987;50.884;14.818;2023-06-22T02:21:48;16.90;99.90
5924;DHT22;2987;50.884;14.818;2023-06-22T02:24:13;16.90;99.90
5924;DHT22;2987;50.884;14.818;2023-06-22T02:26:39;16.80;99.90
5924;DHT22;2987;50.884;14.818;2023-06-22T02:29:08;16.80;99.90
5924;DHT22;2987;50.884;14.818;2023-06-22T02:31:34;16.80;99.90
5924;DHT22;2987;50.884;14.818;2023-06-22T02:34:00;16.80;99.90
5924;DHT22;2987;50.884;14.818;2023-06-22T02:36:26;16.70;99.90
5924;DHT22;2987;50.884;14.818;2023-06-22T02:38:56;16.70;99.90
5924;DHT22;2987;50.884;14.818;2023-06-22T02:41:24;16.70;99.90
5924;DHT22;2987;50.884;14.818;2023-06-22T02:43:50;16.70;99.90
5924;DHT22;2987;50.884;14.818;2023-06-22T02:46:19;16.70;99.90
5924;DHT22;2987;50.884;14.818;2023-06-22T02:48:45;16.70;99.90
5924;DHT22;2987;50.884;14.818;2023-06-22T02:51:11;16.70;99.90
5924;DHT22;2987;50.884;14.818;2023-06-22T02:53:38;16.70;99.90
5924;DHT22;2987;50.884;14.818;2023-06-22T02:56:04;16.70;99.90
5924;DHT22;2987;50.884;14.818;2023-06-22T02:58:34;16.60;99.90
5924;DHT22;2987;50.884;14.818;2023-06-22T03:01:07;16.60;99.90
5924;DHT22;2987;50.884;14.818;2023-06-22T03:03:35;16.60;99.90
5924;DHT22;2987;50.884;14.818;2023-06-22T03:06:01;16.60;99.90
5924;DHT22;2987;50.884;14.818;2023-06-22T03:08:28;16.50;99.90
5924;DHT22;2987;50.884;14.818;2023-06-22T03:10:56;16.60;99.90
5924;DHT22;2987;50.884;14.818;2023-06-22T03:13:21;16.50;99.90
5924;DHT22;2987;50.884;14.818;2023-06-22T03:15:47;16.50;99.90
5924;DHT22;2987;50.884;14.818;2023-06-22T03:18:13;16.50;99.90
5924;DHT22;2987;50.884;14.818;2023-06-22T03:20:41;16.50;99.90
5924;DHT22;2987;50.884;14.818;2023-06-22T03:23:08;16.50;99.90
5924;DHT22;2987;50.884;14.818;2023-06-22T03:25:35;16.50;99.90
5924;DHT22;2987;50.884;14.818;2023-06-22T03:28:01;16.50;99.90
5924;DHT22;2987;50.884;14.818;2023-06-22T03:30:28;16.40;99.90
5924;DHT22;2987;50.884;14.818;2023-06-22T03:32:53;16.40;99.90
5924;DHT22;2987;50.884;14.818;2023-06-22T03:35:19;16.40;99.90
5924;DHT22;2987;50.884;14.818;2023-06-22T03:37:46;16.40;99.90
5924;DHT22;2987;50.884;14.818;2023-06-22T03:40:12;16.40;99.90
5924;DHT22;2987;50.884;14.818;2023-06-22T03:42:39;16.40;99.90
5924;DHT22;2987;50.884;14.818;2023-06-22T03:49:59;16.40;99.90
5924;DHT22;2987;50.884;14.818;2023-06-22T03:52:25;16.40;99.90
5924;DHT22;2987;50.884;14.818;2023-06-22T03:54:51;16.50;99.90
5924;DHT22;2987;50.884;14.818;2023-06-22T03:57:17;16.50;99.90
5924;DHT22;2987;50.884;14.818;2023-06-22T03:59:42;16.50;99.90
5924;DHT22;2987;50.884;14.818;2023-06-22T04:02:08;16.50;99.90
5924;DHT22;2987;50.884;14.818;2023-06-22T04:04:35;16.50;99.90
5924;DHT22;2987;50.884;14.818;2023-06-22T04:07:01;16.50;99.90
5924;DHT22;2987;50.884;14.818;2023-06-22T04:09:27;16.60;99.90
5924;DHT22;2987;50.884;14.818;2023-06-22T04:11:53;16.60;99.90
5924;DHT22;2987;50.884;14.818;2023-06-22T04:14:19;16.60;99.90
5924;DHT22;2987;50.884;14.818;2023-06-22T04:16:45;16.70;99.90
5924;DHT22;2987;50.884;14.818;2023-06-22T04:19:11;16.70;99.90
5924;DHT22;2987;50.884;14.818;2023-06-22T04:21:43;16.80;99.90
5924;DHT22;2987;50.884;14.818;2023-06-22T04:24:11;16.80;99.90
5924;DHT22;2987;50.884;14.818;2023-06-22T04:26:37;16.90;99.90
5924;DHT22;2987;50.884;14.818;2023-06-22T04:29:07;17.00;99.90
5924;DHT22;2987;50.884;14.818;2023-06-22T04:31:35;17.10;99.90
5924;DHT22;2987;50.884;14.818;2023-06-22T04:34:01;17.20;99.90
5924;DHT22;2987;50.884;14.818;2023-06-22T04:36:26;17.30;99.90
5924;DHT22;2987;50.884;14.818;2023-06-22T04:38:56;17.30;99.90
5924;DHT22;2987;50.884;14.818;2023-06-22T04:41:23;17.40;99.90
5924;DHT22;2987;50.884;14.818;2023-06-22T04:43:49;17.50;99.90
5924;DHT22;2987;50.884;14.818;2023-06-22T04:46:20;17.60;99.90
5924;DHT22;2987;50.884;14.818;2023-06-22T04:48:46;17.70;99.90
5924;DHT22;2987;50.884;14.818;2023-06-22T04:51:12;17.80;99.90
5924;DHT22;2987;50.884;14.818;2023-06-22T04:53:38;17.90;99.90
5924;DHT22;2987;50.884;14.818;2023-06-22T04:56:07;18.00;99.90
5924;DHT22;2987;50.884;14.818;2023-06-22T04:58:34;18.20;99.90
5924;DHT22;2987;50.884;14.818;2023-06-22T05:00:59;18.40;99.90
5924;DHT22;2987;50.884;14.818;2023-06-22T05:03:26;18.50;99.90
5924;DHT22;2987;50.884;14.818;2023-06-22T05:05:52;18.50;99.90
5924;DHT22;2987;50.884;14.818;2023-06-22T05:08:19;18.70;99.90
5924;DHT22;2987;50.884;14.818;2023-06-22T05:10:45;18.80;99.90
5924;DHT22;2987;50.884;14.818;2023-06-22T05:13:11;19.00;99.90
5924;DHT22;2987;50.884;14.818;2023-06-22T05:15:37;19.00;99.90
5924;DHT22;2987;50.884;14.818;2023-06-22T05:18:06;19.10;99.90
5924;DHT22;2987;50.884;14.818;2023-06-22T05:20:32;19.20;99.90
5924;DHT22;2987;50.884;14.818;2023-06-22T05:23:00;19.30;99.90
5924;DHT22;2987;50.884;14.818;2023-06-22T05:25:26;19.40;99.90
5924;DHT22;2987;50.884;14.818;2023-06-22T05:27:52;19.60;99.90
5924;DHT22;2987;50.884;14.818;2023-06-22T05:30:18;19.60;99.90
5924;DHT22;2987;50.884;14.818;2023-06-22T05:32:44;19.80;99.90
5924;DHT22;2987;50.884;14.818;2023-06-22T05:35:10;19.90;99.90
5924;DHT22;2987;50.884;14.818;2023-06-22T05:37:36;20.00;99.90
5924;DHT22;2987;50.884;14.818;2023-06-22T05:40:02;20.10;99.90
5924;DHT22;2987;50.884;14.818;2023-06-22T05:42:28;20.20;99.90
5924;DHT22;2987;50.884;14.818;2023-06-22T05:44:54;20.30;99.90
5924;DHT22;2987;50.884;14.818;2023-06-22T05:47:21;20.40;99.90
5924;DHT22;2987;50.884;14.818;2023-06-22T05:49:48;20.50;99.90
5924;DHT22;2987;50.884;14.818;2023-06-22T05:52:14;20.60;99.90
5924;DHT22;2987;50.884;14.818;2023-06-22T05:54:40;20.80;99.90
5924;DHT22;2987;50.884;14.818;2023-06-22T05:57:07;20.90;99.90
5924;DHT22;2987;50.884;14.818;2023-06-22T05:59:33;21.10;99.90
5924;DHT22;2987;50.884;14.818;2023-06-22T06:01:59;21.30;99.90
5924;DHT22;2987;50.884;14.818;2023-06-22T06:04:25;21.40;99.90
5924;DHT22;2987;50.884;14.818;2023-06-22T06:06:51;21.50;99.90
5924;DHT22;2987;50.884;14.818;2023-06-22T06:09:17;21.60;99.90
5924;DHT22;2987;50.884;14.818;2023-06-22T06:11:43;21.70;99.90
5924;DHT22;2987;50.884;14.818;2023-06-22T06:14:09;21.80;99.90
5924;DHT22;2987;50.884;14.818;2023-06-22T06:16:35;22.00;99.90
5924;DHT22;2987;50.884;14.818;2023-06-22T06:19:01;22.20;99.90
5924;DHT22;2987;50.884;14.818;2023-06-22T06:21:27;22.50;99.90
5924;DHT22;2987;50.884;14.818;2023-06-22T06:23:53;22.90;99.90
5924;DHT22;2987;50.884;14.818;2023-06-22T06:26:19;23.20;99.90
5924;DHT22;2987;50.884;14.818;2023-06-22T06:28:54;23.40;99.90
5924;DHT22;2987;50.884;14.818;2023-06-22T06:31:20;23.80;99.90
5924;DHT22;2987;50.884;14.818;2023-06-22T06:33:46;24.20;99.90
5924;DHT22;2987;50.884;14.818;2023-06-22T06:36:12;24.50;99.90
5924;DHT22;2987;50.884;14.818;2023-06-22T06:38:38;24.80;99.90
5924;DHT22;2987;50.884;14.818;2023-06-22T06:41:04;25.10;99.90
5924;DHT22;2987;50.884;14.818;2023-06-22T06:43:30;25.50;99.90
5924;DHT22;2987;50.884;14.818;2023-06-22T06:45:56;25.80;99.90
5924;DHT22;2987;50.884;14.818;2023-06-22T06:50:48;26.30;99.90
5924;DHT22;2987;50.884;14.818;2023-06-22T06:53:14;26.50;99.90
5924;DHT22;2987;50.884;14.818;2023-06-22T06:55:40;26.60;99.90
5924;DHT22;2987;50.884;14.818;2023-06-22T06:58:06;26.80;99.90
5924;DHT22;2987;50.884;14.818;2023-06-22T07:00:34;27.10;99.90
5924;DHT22;2987;50.884;14.818;2023-06-22T07:03:02;27.40;99.90
5924;DHT22;2987;50.884;14.818;2023-06-22T07:05:28;27.60;99.90
5924;DHT22;2987;50.884;14.818;2023-06-22T07:07:54;27.40;99.90
5924;DHT22;2987;50.884;14.818;2023-06-22T07:10:20;27.50;99.90
5924;DHT22;2987;50.884;14.818;2023-06-22T07:12:46;27.70;99.90
5924;DHT22;2987;50.884;14.818;2023-06-22T07:15:13;28.00;99.90
5924;DHT22;2987;50.884;14.818;2023-06-22T07:17:39;28.10;99.90
5924;DHT22;2987;50.884;14.818;2023-06-22T07:20:07;28.20;99.90
5924;DHT22;2987;50.884;14.818;2023-06-22T07:22:36;28.20;99.90
5924;DHT22;2987;50.884;14.818;2023-06-22T07:25:03;28.00;99.90
5924;DHT22;2987;50.884;14.818;2023-06-22T07:27:38;27.60;99.90
5924;DHT22;2987;50.884;14.818;2023-06-22T07:30:05;27.50;99.90
5924;DHT22;2987;50.884;14.818;2023-06-22T07:32:32;27.80;99.90
5924;DHT22;2987;50.884;14.818;2023-06-22T07:34:58;27.90;99.90
5924;DHT22;2987;50.884;14.818;2023-06-22T07:37:24;28.00;99.90
5924;DHT22;2987;50.884;14.818;2023-06-22T07:39:50;28.10;99.90
5924;DHT22;2987;50.884;14.818;2023-06-22T07:42:16;28.20;99.90
5924;DHT22;2987;50.884;14.818;2023-06-22T07:44:44;28.30;99.90
5924;DHT22;2987;50.884;14.818;2023-06-22T07:47:10;28.10;99.90
5924;DHT22;2987;50.884;14.818;2023-06-22T07:49:36;27.70;99.90
5924;DHT22;2987;50.884;14.818;2023-06-22T07:52:02;27.70;99.90
5924;DHT22;2987;50.884;14.818;2023-06-22T07:54:29;27.80;99.90
5924;DHT22;2987;50.884;14.818;2023-06-22T07:56:55;27.80;99.90
5924;DHT22;2987;50.884;14.818;2023-06-22T07:59:21;28.10;99.90
5924;DHT22;2987;50.884;14.818;2023-06-22T08:01:47;28.10;99.90
5924;DHT22;2987;50.884;14.818;2023-06-22T08:04:15;28.10;99.90
5924;DHT22;2987;50.884;14.818;2023-06-22T08:06:41;28.40;99.90
5924;DHT22;2987;50.884;14.818;2023-06-22T08:09:07;28.60;99.90
5924;DHT22;2987;50.884;14.818;2023-06-22T08:11:33;28.70;99.90
5924;DHT22;2987;50.884;14.818;2023-06-22T08:13:59;28.80;99.90
5924;DHT22;2987;50.884;14.818;2023-06-22T08:16:25;29.00;99.90
5924;DHT22;2987;50.884;14.818;2023-06-22T08:18:51;29.00;99.90
5924;DHT22;2987;50.884;14.818;2023-06-22T08:23:43;29.70;99.90
5924;DHT22;2987;50.884;14.818;2023-06-22T08:26:09;30.00;99.90
5924;DHT22;2987;50.884;14.818;2023-06-22T08:28:35;30.10;99.90
5924;DHT22;2987;50.884;14.818;2023-06-22T08:31:02;30.10;99.90
5924;DHT22;2987;50.884;14.818;2023-06-22T08:33:29;29.90;99.90
5924;DHT22;2987;50.884;14.818;2023-06-22T08:35:57;30.00;99.90
5924;DHT22;2987;50.884;14.818;2023-06-22T08:38:23;30.00;99.90
5924;DHT22;2987;50.884;14.818;2023-06-22T08:40:50;29.90;99.90
5924;DHT22;2987;50.884;14.818;2023-06-22T08:43:16;29.90;99.90
5924;DHT22;2987;50.884;14.818;2023-06-22T08:45:42;29.90;99.90
5924;DHT22;2987;50.884;14.818;2023-06-22T08:48:08;29.80;99.90
5924;DHT22;2987;50.884;14.818;2023-06-22T08:50:34;29.70;99.90
5924;DHT22;2987;50.884;14.818;2023-06-22T08:53:00;29.80;99.90
5924;DHT22;2987;50.884;14.818;2023-06-22T08:55:26;29.90;99.90
5924;DHT22;2987;50.884;14.818;2023-06-22T08:57:52;29.80;99.90
5924;DHT22;2987;50.884;14.818;2023-06-22T09:00:18;29.80;99.90
5924;DHT22;2987;50.884;14.818;2023-06-22T09:02:47;29.70;99.90
5924;DHT22;2987;50.884;14.818;2023-06-22T09:05:13;30.00;99.90
5924;DHT22;2987;50.884;14.818;2023-06-22T09:07:40;30.30;99.90
5924;DHT22;2987;50.884;14.818;2023-06-22T09:10:07;30.50;99.90
5924;DHT22;2987;50.884;14.818;2023-06-22T09:12:33;30.70;99.90
5924;DHT22;2987;50.884;14.818;2023-06-22T09:15:00;30.90;99.90
5924;DHT22;2987;50.884;14.818;2023-06-22T09:17:27;31.10;99.90
5924;DHT22;2987;50.884;14.818;2023-06-22T09:19:53;31.10;99.90
5924;DHT22;2987;50.884;14.818;2023-06-22T09:22:19;30.90;99.90
5924;DHT22;2987;50.884;14.818;2023-06-22T09:24:45;31.10;99.90
5924;DHT22;2987;50.884;14.818;2023-06-22T09:27:11;31.30;99.90
5924;DHT22;2987;50.884;14.818;2023-06-22T09:29:37;31.40;99.90
5924;DHT22;2987;50.884;14.818;2023-06-22T09:34:30;31.30;99.90
5924;DHT22;2987;50.884;14.818;2023-06-22T09:36:57;31.60;99.90
5924;DHT22;2987;50.884;14.818;2023-06-22T09:39:26;31.90;99.90
5924;DHT22;2987;50.884;14.818;2023-06-22T09:41:52;32.00;99.90
5924;DHT22;2987;50.884;14.818;2023-06-22T09:44:18;31.90;99.90
5924;DHT22;2987;50.884;14.818;2023-06-22T09:46:44;31.70;99.90
5924;DHT22;2987;50.884;14.818;2023-06-22T09:49:10;31.60;99.90
5924;DHT22;2987;50.884;14.818;2023-06-22T09:51:36;31.50;99.90
5924;DHT22;2987;50.884;14.818;2023-06-22T09:54:02;31.70;99.90
5924;DHT22;2987;50.884;14.818;2023-06-22T09:56:28;31.80;99.90
5924;DHT22;2987;50.884;14.818;2023-06-22T09:58:56;31.50;99.90
5924;DHT22;2987;50.884;14.818;2023-06-22T10:01:22;31.40;99.90
5924;DHT22;2987;50.884;14.818;2023-06-22T10:03:49;31.60;99.90
5924;DHT22;2987;50.884;14.818;2023-06-22T10:06:15;31.70;99.90
5924;DHT22;2987;50.884;14.818;2023-06-22T10:08:41;31.80;99.90
5924;DHT22;2987;50.884;14.818;2023-06-22T10:11:08;31.80;99.90
5924;DHT22;2987;50.884;14.818;2023-06-22T10:13:33;31.70;99.90
5924;DHT22;2987;50.884;14.818;2023-06-22T10:15:59;31.80;99.90
5924;DHT22;2987;50.884;14.818;2023-06-22T10:18:25;32.20;99.90
5924;DHT22;2987;50.884;14.818;2023-06-22T10:20:52;32.40;99.90
5924;DHT22;2987;50.884;14.818;2023-06-22T10:23:20;32.50;99.90
5924;DHT22;2987;50.884;14.818;2023-06-22T10:28:12;32.80;99.90
5924;DHT22;2987;50.884;14.818;2023-06-22T10:30:39;33.10;99.90
5924;DHT22;2987;50.884;14.818;2023-06-22T10:33:08;33.00;99.90
5924;DHT22;2987;50.884;14.818;2023-06-22T10:35:35;32.60;99.90
5924;DHT22;2987;50.884;14.818;2023-06-22T10:38:04;32.60;99.90
5924;DHT22;2987;50.884;14.818;2023-06-22T10:40:30;32.80;99.90
5924;DHT22;2987;50.884;14.818;2023-06-22T10:42:56;33.10;99.90
5924;DHT22;2987;50.884;14.818;2023-06-22T10:45:22;33.00;99.90
5924;DHT22;2987;50.884;14.818;2023-06-22T10:47:48;33.40;99.90
5924;DHT22;2987;50.884;14.818;2023-06-22T10:50:14;33.60;99.50
5924;DHT22;2987;50.884;14.818;2023-06-22T10:52:41;33.80;99.10
5924;DHT22;2987;50.884;14.818;2023-06-22T10:55:08;34.00;99.00
5924;DHT22;2987;50.884;14.818;2023-06-22T10:57:35;33.90;99.90
5924;DHT22;2987;50.884;14.818;2023-06-22T11:00:02;33.90;99.90
5924;DHT22;2987;50.884;14.818;2023-06-22T11:02:31;34.00;99.20
5924;DHT22;2987;50.884;14.818;2023-06-22T11:07:26;33.60;99.80
5924;DHT22;2987;50.884;14.818;2023-06-22T11:09:54;33.40;99.50
5924;DHT22;2987;50.884;14.818;2023-06-22T11:12:20;33.10;99.90
5924;DHT22;2987;50.884;14.818;2023-06-22T11:14:46;32.60;99.60
5924;DHT22;2987;50.884;14.818;2023-06-22T11:17:12;32.50;99.80
5924;DHT22;2987;50.884;14.818;2023-06-22T11:19:38;32.00;99.90
5924;DHT22;2987;50.884;14.818;2023-06-22T11:22:05;32.10;99.90
5924;DHT22;2987;50.884;14.818;2023-06-22T11:24:32;32.20;99.90
5924;DHT22;2987;50.884;14.818;2023-06-22T11:26:58;32.10;99.90
5924;DHT22;2987;50.884;14.818;2023-06-22T11:29:24;32.30;99.90
5924;DHT22;2987;50.884;14.818;2023-06-22T11:31:50;32.40;99.90
5924;DHT22;2987;50.884;14.818;2023-06-22T11:34:16;32.70;99.90
5924;DHT22;2987;50.884;14.818;2023-06-22T11:36:43;32.80;99.90
5924;DHT22;2987;50.884;14.818;2023-06-22T11:39:09;32.80;99.90
5924;DHT22;2987;50.884;14.818;2023-06-22T11:41:35;32.50;99.90
5924;DHT22;2987;50.884;14.818;2023-06-22T11:44:01;32.20;99.90
5924;DHT22;2987;50.884;14.818;2023-06-22T11:46:30;32.00;99.90
5924;DHT22;2987;50.884;14.818;2023-06-22T11:48:57;32.10;99.90
5924;DHT22;2987;50.884;14.818;2023-06-22T11:51:23;32.50;99.90
5924;DHT22;2987;50.884;14.818;2023-06-22T11:53:49;32.70;99.90
5924;DHT22;2987;50.884;14.818;2023-06-22T11:56:15;32.90;99.90
5924;DHT22;2987;50.884;14.818;2023-06-22T11:58:41;32.90;99.90
5924;DHT22;2987;50.884;14.818;2023-06-22T12:01:07;33.00;99.90
5924;DHT22;2987;50.884;14.818;2023-06-22T12:03:33;33.30;99.90
5924;DHT22;2987;50.884;14.818;2023-06-22T12:05:59;33.30;99.90
5924;DHT22;2987;50.884;14.818;2023-06-22T12:08:25;33.50;99.90
5924;DHT22;2987;50.884;14.818;2023-06-22T12:10:51;33.40;99.30
5924;DHT22;2987;50.884;14.818;2023-06-22T12:13:19;33.30;99.60
5924;DHT22;2987;50.884;14.818;2023-06-22T12:15:45;33.30;99.90
5924;DHT22;2987;50.884;14.818;2023-06-22T12:18:11;33.50;99.90
5924;DHT22;2987;50.884;14.818;2023-06-22T12:20:40;33.50;98.80
5924;DHT22;2987;50.884;14.818;2023-06-22T12:23:06;33.40;99.90
5924;DHT22;2987;50.884;14.818;2023-06-22T12:25:32;33.40;99.60
5924;DHT22;2987;50.884;14.818;2023-06-22T12:27:57;33.40;99.90
5924;DHT22;2987;50.884;14.818;2023-06-22T12:30:23;33.50;99.90
5924;DHT22;2987;50.884;14.818;2023-06-22T12:32:49;33.50;99.90
5924;DHT22;2987;50.884;14.818;2023-06-22T12:35:17;33.50;99.90
5924;DHT22;2987;50.884;14.818;2023-06-22T12:37:43;33.70;99.20
5924;DHT22;2987;50.884;14.818;2023-06-22T12:40:10;33.50;99.80
5924;DHT22;2987;50.884;14.818;2023-06-22T12:42:36;32.90;99.80
5924;DHT22;2987;50.884;14.818;2023-06-22T12:45:02;32.80;99.50
5924;DHT22;2987;50.884;14.818;2023-06-22T12:47:29;33.10;99.90
5924;DHT22;2987;50.884;14.818;2023-06-22T12:49:55;33.20;99.90
5924;DHT22;2987;50.884;14.818;2023-06-22T12:52:21;33.30;99.90
5924;DHT22;2987;50.884;14.818;2023-06-22T12:54:47;33.60;99.00
5924;DHT22;2987;50.884;14.818;2023-06-22T12:57:14;33.70;98.80
5924;DHT22;2987;50.884;14.818;2023-06-22T12:59:40;33.30;99.60
5924;DHT22;2987;50.884;14.818;2023-06-22T13:02:06;33.00;99.90
5924;DHT22;2987;50.884;14.818;2023-06-22T13:04:32;33.00;99.90
5924;DHT22;2987;50.884;14.818;2023-06-22T13:06:57;33.10;99.00
5924;DHT22;2987;50.884;14.818;2023-06-22T13:09:23;33.30;99.50
5924;DHT22;2987;50.884;14.818;2023-06-22T13:11:49;33.10;99.90
5924;DHT22;2987;50.884;14.818;2023-06-22T13:14:15;33.20;99.90
5924;DHT22;2987;50.884;14.818;2023-06-22T13:16:42;33.30;99.90
5924;DHT22;2987;50.884;14.818;2023-06-22T13:19:08;33.40;99.90
5924;DHT22;2987;50.884;14.818;2023-06-22T13:21:35;33.40;99.70
5924;DHT22;2987;50.884;14.818;2023-06-22T13:24:01;33.30;99.90
5924;DHT22;2987;50.884;14.818;2023-06-22T13:26:27;33.40;98.90
5924;DHT22;2987;50.884;14.818;2023-06-22T13:28:54;33.40;98.60
5924;DHT22;2987;50.884;14.818;2023-06-22T13:31:20;33.40;99.00
5924;DHT22;2987;50.884;14.818;2023-06-22T13:33:47;33.50;98.90
5924;DHT22;2987;50.884;14.818;2023-06-22T13:36:14;33.50;98.00
5924;DHT22;2987;50.884;14.818;2023-06-22T13:38:41;33.10;99.80
5924;DHT22;2987;50.884;14.818;2023-06-22T13:41:07;32.70;99.90
5924;DHT22;2987;50.884;14.818;2023-06-22T13:43:33;32.50;99.90
5924;DHT22;2987;50.884;14.818;2023-06-22T13:45:59;32.40;99.90
5924;DHT22;2987;50.884;14.818;2023-06-22T13:48:25;32.40;99.90
5924;DHT22;2987;50.884;14.818;2023-06-22T13:50:52;32.40;99.90
5924;DHT22;2987;50.884;14.818;2023-06-22T13:53:19;32.60;99.90
5924;DHT22;2987;50.884;14.818;2023-06-22T13:55:45;32.60;99.90
5924;DHT22;2987;50.884;14.818;2023-06-22T13:58:13;32.90;99.90
5924;DHT22;2987;50.884;14.818;2023-06-22T14:00:39;33.00;99.90
5924;DHT22;2987;50.884;14.818;2023-06-22T14:03:05;33.20;99.90
5924;DHT22;2987;50.884;14.818;2023-06-22T14:05:31;33.30;99.90
5924;DHT22;2987;50.884;14.818;2023-06-22T14:07:57;33.10;99.90
5924;DHT22;2987;50.884;14.818;2023-06-22T14:10:23;33.00;99.90
5924;DHT22;2987;50.884;14.818;2023-06-22T14:12:49;32.70;99.90
5924;DHT22;2987;50.884;14.818;2023-06-22T14:15:15;32.40;99.90
5924;DHT22;2987;50.884;14.818;2023-06-22T14:17:40;32.10;99.90
5924;DHT22;2987;50.884;14.818;2023-06-22T14:22:34;32.10;99.90
5924;DHT22;2987;50.884;14.818;2023-06-22T14:25:01;32.30;99.90
5924;DHT22;2987;50.884;14.818;2023-06-22T14:27:28;32.30;99.90
5924;DHT22;2987;50.884;14.818;2023-06-22T14:29:54;32.40;99.90
5924;DHT22;2987;50.884;14.818;2023-06-22T14:32:20;32.30;99.90
5924;DHT22;2987;50.884;14.818;2023-06-22T14:34:46;32.30;99.90
5924;DHT22;2987;50.884;14.818;2023-06-22T14:37:11;32.30;99.90
5924;DHT22;2987;50.884;14.818;2023-06-22T14:39:39;32.10;99.90
5924;DHT22;2987;50.884;14.818;2023-06-22T14:42:06;32.10;99.90
5924;DHT22;2987;50.884;14.818;2023-06-22T14:44:32;32.20;99.90
5924;DHT22;2987;50.884;14.818;2023-06-22T14:46:59;32.20;99.90
5924;DHT22;2987;50.884;14.818;2023-06-22T14:49:25;32.40;99.90
5924;DHT22;2987;50.884;14.818;2023-06-22T14:51:51;32.30;99.90
5924;DHT22;2987;50.884;14.818;2023-06-22T14:54:17;32.30;99.90
5924;DHT22;2987;50.884;14.818;2023-06-22T14:56:43;32.20;99.90
5924;DHT22;2987;50.884;14.818;2023-06-22T14:59:09;31.90;99.90
5924;DHT22;2987;50.884;14.818;2023-06-22T15:01:35;31.90;99.90
5924;DHT22;2987;50.884;14.818;2023-06-22T15:04:02;31.80;99.90
5924;DHT22;2987;50.884;14.818;2023-06-22T15:06:28;31.60;99.90
5924;DHT22;2987;50.884;14.818;2023-06-22T15:08:54;31.80;99.90
5924;DHT22;2987;50.884;14.818;2023-06-22T15:11:20;32.00;99.90
5924;DHT22;2987;50.884;14.818;2023-06-22T15:13:46;32.10;99.90
5924;DHT22;2987;50.884;14.818;2023-06-22T15:16:12;32.10;99.90
5924;DHT22;2987;50.884;14.818;2023-06-22T15:18:38;32.00;99.90
5924;DHT22;2987;50.884;14.818;2023-06-22T15:21:07;31.90;99.90
5924;DHT22;2987;50.884;14.818;2023-06-22T15:23:33;32.00;99.90
5924;DHT22;2987;50.884;14.818;2023-06-22T15:26:02;32.10;99.90
5924;DHT22;2987;50.884;14.818;2023-06-22T15:28:29;31.90;99.90
5924;DHT22;2987;50.884;14.818;2023-06-22T15:30:55;31.70;99.90
5924;DHT22;2987;50.884;14.818;2023-06-22T15:33:22;31.50;99.90
5924;DHT22;2987;50.884;14.818;2023-06-22T15:35:47;31.30;99.90
5924;DHT22;2987;50.884;14.818;2023-06-22T15:38:13;31.30;99.90
5924;DHT22;2987;50.884;14.818;2023-06-22T15:40:39;31.20;99.90
5924;DHT22;2987;50.884;14.818;2023-06-22T15:43:05;31.10;99.90
5924;DHT22;2987;50.884;14.818;2023-06-22T15:45:31;31.30;99.90
5924;DHT22;2987;50.884;14.818;2023-06-22T15:47:57;31.20;99.90
5924;DHT22;2987;50.884;14.818;2023-06-22T15:50:23;31.20;99.90
5924;DHT22;2987;50.884;14.818;2023-06-22T15:52:49;31.40;99.90
5924;DHT22;2987;50.884;14.818;2023-06-22T15:55:18;31.50;99.90
5924;DHT22;2987;50.884;14.818;2023-06-22T15:57:44;31.40;99.90
5924;DHT22;2987;50.884;14.818;2023-06-22T16:00:14;31.30;99.90
5924;DHT22;2987;50.884;14.818;2023-06-22T16:02:42;31.10;99.90
5924;DHT22;2987;50.884;14.818;2023-06-22T16:05:08;30.90;99.90
5924;DHT22;2987;50.884;14.818;2023-06-22T16:07:36;31.00;99.90
5924;DHT22;2987;50.884;14.818;2023-06-22T16:10:04;30.90;99.90
5924;DHT22;2987;50.884;14.818;2023-06-22T16:12:30;30.90;99.90
5924;DHT22;2987;50.884;14.818;2023-06-22T16:14:56;31.00;99.90
5924;DHT22;2987;50.884;14.818;2023-06-22T16:17:22;30.90;99.90